Share

Gothenburg, NE

Willow Island (KNEGOTHE2) Elev 0 ft | 40.94 °N, 100.07 °W | Change Station

Current weather conditions updated 72 days ago

Clear
Clear
68 °F
Feels Like 68 °F
N
19
Wind Variable Wind from NNE
Gusts 28 mph
Sunrise 6:52 AM
Sunset 8:26 PM
Moon Waning Gibbous

Today is forecast to be Cooler than yesterday.

Pressure 30.19 in
Visibility 10.0 miles
Clouds Clear
Dew Point 34 °F
Humidity 29%
Rainfall 0.00 in
Snow Depth Not available.
UV 7 out of 16
Pollen 11.00 out of 12
Air Quality Not available.
Flu Activity Sporadic
METAR KLXN 211615Z AUTO 03021KT 10SM CLR 18/M01 A3019 RMK AO2 T01781009

More Conditions Fewer Conditions

Pressure 30.19 in
Visibility 10.0 miles
Clouds Clear
Dew Point 34 °F
Humidity 29%
Rainfall 0.00 in
Snow Depth Not available.
UV 7 out of 16
Pollen 11.00 out of 12
Air Quality Not available.
Flu Activity Sporadic
METAR KLXN 211615Z AUTO 03021KT 10SM CLR 18/M01 A3019 RMK AO2 T01781009

More Conditions Fewer Conditions

10-Day Weather Forecast

Almanac

Astronomy

Apr. 21, 2014 Rise Set
Actual Time 6:52 AM CDT 8:26 PM CDT
Civil Twilight 6:23 AM CDT 8:55 PM CDT
Nautical Twilight 5:48 AM CDT 9:30 PM CDT
Astronomical Twilight 5:11 AM CDT 10:07 PM CDT
Moon 1:58 AM CDT 12:20 PM CDT
Length of Visible Light 14h 32m
Length of Day
13h 34m
Tomorrow will be 2m 31s longer.
Waning Gibbous, 57% of the Moon is Illuminated
Today
Waning Gibbous
Apr 22
Last Quarter
Apr 29
New
May 6
First Quarter
May 14
Full

Today's Extremes

State Highs State Lows

Community

  • Glass on White Lake
    Glass on White Lake
  • Bright Eyes
    Bright Eyes
  • Snowy Robin
    Snowy Robin
  • Spring Crocus
    Spring Crocus
  • Sun Pillar and Geese
    Sun Pillar and Geese

WunderPhotos

Upload Photos

1,703,680 photos uploaded!

WunderBlogs® & News

Nearby

Snow Depth

Station Depth Elevation
No new snow has been reported.

Coastal Water Temperatures

Place Temperature
No Stations Reporting

Earthquake Activity

City Distance Mag. Time & Date
No recent earthquake activity has been reported nearby.
Minimum magnitude displayed is 2.5.

Nearby Weather Stations

Station Location Temp. Dew Point Humidity Wind Precip. Elev Updated Type
MesoWest WILLO2 , Willow Island, NE 54 °F - - North  at  - 0.00 in / hr 2523 ft 10:00 AM CDT MADIS
Gothenburg, NE 64.1 °F 33 °F 31% NE  at  10.0 mph 0.00 in / hr 2572 ft 11:25 AM CDT Normal
MesoWest BRADY1 , Brady, NE 58 °F - - North  at  - 0.00 in / hr 2649 ft 10:00 AM CDT MADIS
MesoWest LEXNG1 , Lexington, NE 56 °F - - North  at  - 0.00 in / hr 2411 ft 10:00 AM CDT MADIS
Mallard Bay, Johnson Lake, NE 59.9 °F 29 °F 31% NNE  at  12.0 mph 0.00 in / hr 2623 ft 11:26 AM CDT Rapid Fire

Show More Stations Show Fewer Stations

What do you think?

We're not finished. Please let us know what you like, what you don't like, and what you are still missing.